sensor_id;sensor_type;location;lat;lon;timestamp;pressure;altitude;pressure_sealevel;temperature;humidity
31771;BME280;18343;50.152;8.182;2022-07-10T00:02:08;98268.38;;;16.66;93.90
31771;BME280;18343;50.152;8.182;2022-07-10T00:04:35;98266.69;;;16.65;94.62
31771;BME280;18343;50.152;8.182;2022-07-10T00:07:03;98267.94;;;16.63;93.20
31771;BME280;18343;50.152;8.182;2022-07-10T00:09:32;98264.19;;;16.64;93.23
31771;BME280;18343;50.152;8.182;2022-07-10T00:11:59;98267.28;;;16.61;93.72
31771;BME280;18343;50.152;8.182;2022-07-10T00:14:28;98263.53;;;16.62;92.15
31771;BME280;18343;50.152;8.182;2022-07-10T00:16:55;98256.66;;;16.52;93.61
31771;BME280;18343;50.152;8.182;2022-07-10T00:19:22;98256.03;;;16.50;93.17
31771;BME280;18343;50.152;8.182;2022-07-10T00:21:49;98254.34;;;16.49;93.49
31771;BME280;18343;50.152;8.182;2022-07-10T00:24:17;98252.88;;;16.53;92.63
31771;BME280;18343;50.152;8.182;2022-07-10T00:26:44;98256.84;;;16.51;92.82
31771;BME280;18343;50.152;8.182;2022-07-10T00:29:13;98253.09;;;16.45;93.42
31771;BME280;18343;50.152;8.182;2022-07-10T00:31:42;98247.91;;;16.37;92.82
31771;BME280;18343;50.152;8.182;2022-07-10T00:34:09;98251.25;;;16.39;93.66
31771;BME280;18343;50.152;8.182;2022-07-10T00:36:37;98250.81;;;16.36;93.61
31771;BME280;18343;50.152;8.182;2022-07-10T00:39:05;98250.41;;;16.39;91.29
31771;BME280;18343;50.152;8.182;2022-07-10T00:41:32;98247.47;;;16.40;92.74
31771;BME280;18343;50.152;8.182;2022-07-10T00:44:01;98255.84;;;16.32;93.66
31771;BME280;18343;50.152;8.182;2022-07-10T00:46:30;98258.13;;;16.29;92.64
31771;BME280;18343;50.152;8.182;2022-07-10T00:48:59;98263.75;;;16.27;93.16
31771;BME280;18343;50.152;8.182;2022-07-10T00:51:29;98267.09;;;16.16;92.52
31771;BME280;18343;50.152;8.182;2022-07-10T00:53:57;98263.97;;;16.19;91.82
31771;BME280;18343;50.152;8.182;2022-07-10T00:56:27;98264.38;;;16.16;92.43
31771;BME280;18343;50.152;8.182;2022-07-10T00:58:55;98266.69;;;16.12;91.03
31771;BME280;18343;50.152;8.182;2022-07-10T01:01:22;98271.50;;;16.10;91.61
31771;BME280;18343;50.152;8.182;2022-07-10T01:03:51;98275.03;;;16.11;90.84
31771;BME280;18343;50.152;8.182;2022-07-10T01:06:19;98266.88;;;16.04;91.56
31771;BME280;18343;50.152;8.182;2022-07-10T01:08:47;98258.13;;;16.02;92.21
31771;BME280;18343;50.152;8.182;2022-07-10T01:11:15;98256.22;;;16.03;92.35
31771;BME280;18343;50.152;8.182;2022-07-10T01:13:43;98251.63;;;15.97;92.93
31771;BME280;18343;50.152;8.182;2022-07-10T01:16:10;98255.78;;;15.93;92.75
31771;BME280;18343;50.152;8.182;2022-07-10T01:18:38;98252.69;;;15.96;92.92
31771;BME280;18343;50.152;8.182;2022-07-10T01:21:23;98255.19;;;15.84;92.77
31771;BME280;18343;50.152;8.182;2022-07-10T01:23:51;98257.69;;;15.85;92.53
31771;BME280;18343;50.152;8.182;2022-07-10T01:26:20;98253.91;;;15.86;93.23
31771;BME280;18343;50.152;8.182;2022-07-10T01:28:50;98252.03;;;15.87;91.99
31771;BME280;18343;50.152;8.182;2022-07-10T01:31:18;98251.44;;;15.85;93.14
31771;BME280;18343;50.152;8.182;2022-07-10T01:33:46;98248.47;;;15.86;90.39
31771;BME280;18343;50.152;8.182;2022-07-10T01:36:14;98254.72;;;15.74;91.45
31771;BME280;18343;50.152;8.182;2022-07-10T01:38:43;98249.31;;;15.74;92.13
31771;BME280;18343;50.152;8.182;2022-07-10T01:41:10;98259.94;;;15.75;92.63
31771;BME280;18343;50.152;8.182;2022-07-10T01:43:38;98252.03;;;15.74;92.24
31771;BME280;18343;50.152;8.182;2022-07-10T01:46:08;98261.41;;;15.71;92.57
31771;BME280;18343;50.152;8.182;2022-07-10T01:48:37;98263.91;;;15.73;92.52
31771;BME280;18343;50.152;8.182;2022-07-10T01:51:06;98260.75;;;15.69;91.11
31771;BME280;18343;50.152;8.182;2022-07-10T01:53:36;98260.13;;;15.67;91.38
31771;BME280;18343;50.152;8.182;2022-07-10T01:56:06;98262.84;;;15.67;92.36
31771;BME280;18343;50.152;8.182;2022-07-10T01:58:34;98264.94;;;15.65;92.53
31771;BME280;18343;50.152;8.182;2022-07-10T02:01:02;98262.84;;;15.67;91.54
31771;BME280;18343;50.152;8.182;2022-07-10T02:03:29;98262.00;;;15.67;92.00
31771;BME280;18343;50.152;8.182;2022-07-10T02:06:14;98258.66;;;15.65;91.79
31771;BME280;18343;50.152;8.182;2022-07-10T02:08:43;98257.19;;;15.62;90.76
31771;BME280;18343;50.152;8.182;2022-07-10T02:11:10;98254.47;;;15.55;91.45
31771;BME280;18343;50.152;8.182;2022-07-10T02:13:38;98255.50;;;15.54;90.69
31771;BME280;18343;50.152;8.182;2022-07-10T02:16:06;98262.75;;;15.47;90.99
31771;BME280;18343;50.152;8.182;2022-07-10T02:18:33;98255.88;;;15.45;91.68
31771;BME280;18343;50.152;8.182;2022-07-10T02:21:01;98255.03;;;15.44;91.48
31771;BME280;18343;50.152;8.182;2022-07-10T02:23:28;98254.00;;;15.45;91.75
31771;BME280;18343;50.152;8.182;2022-07-10T02:25:57;98260.25;;;15.46;91.56
31771;BME280;18343;50.152;8.182;2022-07-10T02:28:24;98253.16;;;15.45;92.47
31771;BME280;18343;50.152;8.182;2022-07-10T02:30:52;98262.34;;;15.44;90.85
31771;BME280;18343;50.152;8.182;2022-07-10T02:33:19;98253.56;;;15.42;91.35
31771;BME280;18343;50.152;8.182;2022-07-10T02:35:46;98256.91;;;15.44;90.97
31771;BME280;18343;50.152;8.182;2022-07-10T02:38:14;98249.38;;;15.39;92.11
31771;BME280;18343;50.152;8.182;2022-07-10T02:40:41;98248.97;;;15.42;91.91
31771;BME280;18343;50.152;8.182;2022-07-10T02:43:10;98251.66;;;15.36;91.41
31771;BME280;18343;50.152;8.182;2022-07-10T02:45:37;98253.13;;;15.38;92.49
31771;BME280;18343;50.152;8.182;2022-07-10T02:48:05;98254.81;;;15.39;91.31
31771;BME280;18343;50.152;8.182;2022-07-10T02:50:34;98256.88;;;15.37;90.96
31771;BME280;18343;50.152;8.182;2022-07-10T02:53:02;98260.19;;;15.33;91.43
31771;BME280;18343;50.152;8.182;2022-07-10T02:55:30;98248.50;;;15.26;91.62
31771;BME280;18343;50.152;8.182;2022-07-10T02:57:59;98256.44;;;15.27;90.64
31771;BME280;18343;50.152;8.182;2022-07-10T03:00:27;98260.63;;;15.30;91.21
31771;BME280;18343;50.152;8.182;2022-07-10T03:02:55;98258.13;;;15.28;90.64
31771;BME280;18343;50.152;8.182;2022-07-10T03:05:23;98259.34;;;15.26;90.75
31771;BME280;18343;50.152;8.182;2022-07-10T03:07:50;98253.94;;;15.26;90.90
31771;BME280;18343;50.152;8.182;2022-07-10T03:10:18;98259.34;;;15.26;88.97
31771;BME280;18343;50.152;8.182;2022-07-10T03:12:45;98248.69;;;15.17;89.03
31771;BME280;18343;50.152;8.182;2022-07-10T03:15:13;98256.19;;;15.15;89.72
31771;BME280;18343;50.152;8.182;2022-07-10T03:17:42;98253.31;;;15.23;89.28
31771;BME280;18343;50.152;8.182;2022-07-10T03:20:10;98255.13;;;15.16;90.38
31771;BME280;18343;50.152;8.182;2022-07-10T03:22:38;98244.69;;;15.13;90.93
31771;BME280;18343;50.152;8.182;2022-07-10T03:25:06;98253.88;;;15.12;89.94
31771;BME280;18343;50.152;8.182;2022-07-10T03:27:33;98253.03;;;15.12;90.43
31771;BME280;18343;50.152;8.182;2022-07-10T03:30:01;98258.66;;;15.10;90.33
31771;BME280;18343;50.152;8.182;2022-07-10T03:32:29;98253.44;;;15.09;90.76
31771;BME280;18343;50.152;8.182;2022-07-10T03:34:58;98266.13;;;15.08;90.94
31771;BME280;18343;50.152;8.182;2022-07-10T03:37:25;98264.47;;;15.07;90.10
31771;BME280;18343;50.152;8.182;2022-07-10T03:39:53;98263.81;;;15.05;90.68
31771;BME280;18343;50.152;8.182;2022-07-10T03:42:20;98264.91;;;15.04;89.80
31771;BME280;18343;50.152;8.182;2022-07-10T03:44:47;98262.59;;;15.01;89.24
31771;BME280;18343;50.152;8.182;2022-07-10T03:47:14;98265.50;;;15.00;89.14
31771;BME280;18343;50.152;8.182;2022-07-10T03:49:42;98277.75;;;14.96;88.53
31771;BME280;18343;50.152;8.182;2022-07-10T03:52:10;98285.25;;;14.94;88.62
31771;BME280;18343;50.152;8.182;2022-07-10T03:54:37;98276.03;;;14.88;89.14
31771;BME280;18343;50.152;8.182;2022-07-10T03:57:05;98273.53;;;14.86;89.12
31771;BME280;18343;50.152;8.182;2022-07-10T03:59:49;98270.78;;;14.80;nan
31771;BME280;18343;50.152;8.182;2022-07-10T04:02:17;98269.94;;;14.79;88.17
31771;BME280;18343;50.152;8.182;2022-07-10T04:04:44;98273.25;;;14.75;89.02
31771;BME280;18343;50.152;8.182;2022-07-10T04:07:13;98271.59;;;14.74;87.84
31771;BME280;18343;50.152;8.182;2022-07-10T04:09:40;98270.38;;;14.76;88.70
31771;BME280;18343;50.152;8.182;2022-07-10T04:12:08;98271.81;;;14.79;87.89
31771;BME280;18343;50.152;8.182;2022-07-10T04:14:35;98276.19;;;14.80;87.72
31771;BME280;18343;50.152;8.182;2022-07-10T04:17:03;98276.81;;;14.82;88.51
31771;BME280;18343;50.152;8.182;2022-07-10T04:19:30;98280.38;;;14.82;88.83
31771;BME280;18343;50.152;8.182;2022-07-10T04:21:57;98285.78;;;14.76;88.88
31771;BME280;18343;50.152;8.182;2022-07-10T04:24:26;98287.22;;;14.78;87.57
31771;BME280;18343;50.152;8.182;2022-07-10T04:26:53;98281.59;;;14.73;88.34
31771;BME280;18343;50.152;8.182;2022-07-10T04:29:20;98291.97;;;14.70;88.35
31771;BME280;18343;50.152;8.182;2022-07-10T04:31:48;98285.53;;;14.71;89.57
31771;BME280;18343;50.152;8.182;2022-07-10T04:34:15;98278.88;;;14.73;88.87
31771;BME280;18343;50.152;8.182;2022-07-10T04:36:43;98284.94;;;14.75;89.02
31771;BME280;18343;50.152;8.182;2022-07-10T04:39:10;98297.00;;;14.73;89.21
31771;BME280;18343;50.152;8.182;2022-07-10T04:41:39;98295.56;;;14.77;89.36
31771;BME280;18343;50.152;8.182;2022-07-10T04:44:06;98291.97;;;14.70;88.98
31771;BME280;18343;50.152;8.182;2022-07-10T04:46:34;98292.56;;;14.65;89.28
31771;BME280;18343;50.152;8.182;2022-07-10T04:49:01;98301.25;;;14.61;89.78
31771;BME280;18343;50.152;8.182;2022-07-10T04:51:28;98304.22;;;14.66;89.51
31771;BME280;18343;50.152;8.182;2022-07-10T04:53:56;98299.84;;;14.65;89.16
31771;BME280;18343;50.152;8.182;2022-07-10T04:56:23;98296.09;;;14.66;88.78
31771;BME280;18343;50.152;8.182;2022-07-10T04:58:52;98307.31;;;14.63;89.61
31771;BME280;18343;50.152;8.182;2022-07-10T05:01:19;98298.75;;;14.59;89.48
31771;BME280;18343;50.152;8.182;2022-07-10T05:03:47;98300.44;;;14.60;89.27
31771;BME280;18343;50.152;8.182;2022-07-10T05:06:14;98310.88;;;14.63;88.65
31771;BME280;18343;50.152;8.182;2022-07-10T05:08:42;98306.88;;;14.59;89.99
31771;BME280;18343;50.152;8.182;2022-07-10T05:11:09;98302.69;;;14.56;90.33
31771;BME280;18343;50.152;8.182;2022-07-10T05:13:37;98299.34;;;14.54;89.76
31771;BME280;18343;50.152;8.182;2022-07-10T05:16:07;98306.81;;;14.52;89.35
31771;BME280;18343;50.152;8.182;2022-07-10T05:18:34;98307.25;;;14.49;87.59
31771;BME280;18343;50.152;8.182;2022-07-10T05:21:01;98310.34;;;14.46;88.10
31771;BME280;18343;50.152;8.182;2022-07-10T05:23:29;98302.41;;;14.45;88.79
31771;BME280;18343;50.152;8.182;2022-07-10T05:25:57;98302.84;;;14.48;90.67
31771;BME280;18343;50.152;8.182;2022-07-10T05:28:24;98307.25;;;14.49;90.98
31771;BME280;18343;50.152;8.182;2022-07-10T05:30:51;98312.03;;;14.54;88.55
31771;BME280;18343;50.152;8.182;2022-07-10T05:33:20;98305.16;;;14.51;89.60
31771;BME280;18343;50.152;8.182;2022-07-10T05:35:48;98306.63;;;14.54;90.05
31771;BME280;18343;50.152;8.182;2022-07-10T05:38:15;98313.91;;;14.53;89.44
31771;BME280;18343;50.152;8.182;2022-07-10T05:40:43;98308.50;;;14.53;89.66
31771;BME280;18343;50.152;8.182;2022-07-10T05:43:11;98311.00;;;14.55;89.69
31771;BME280;18343;50.152;8.182;2022-07-10T05:45:38;98311.41;;;14.52;89.49
31771;BME280;18343;50.152;8.182;2022-07-10T05:48:06;98316.63;;;14.53;89.03
31771;BME280;18343;50.152;8.182;2022-07-10T05:50:34;98315.78;;;14.53;89.46
31771;BME280;18343;50.152;8.182;2022-07-10T05:53:02;98322.66;;;14.55;89.53
31771;BME280;18343;50.152;8.182;2022-07-10T05:55:29;98321.50;;;14.65;90.36
31771;BME280;18343;50.152;8.182;2022-07-10T05:57:56;98327.94;;;14.64;87.64
31771;BME280;18343;50.152;8.182;2022-07-10T06:00:24;98317.25;;;14.55;86.25
31771;BME280;18343;50.152;8.182;2022-07-10T06:02:52;98322.72;;;14.62;87.85
31771;BME280;18343;50.152;8.182;2022-07-10T06:05:19;98332.47;;;14.56;88.72
31771;BME280;18343;50.152;8.182;2022-07-10T06:07:49;98335.63;;;14.60;87.44
31771;BME280;18343;50.152;8.182;2022-07-10T06:10:16;98335.81;;;14.59;84.97
31771;BME280;18343;50.152;8.182;2022-07-10T06:12:43;98329.91;;;14.48;85.58
31771;BME280;18343;50.152;8.182;2022-07-10T06:15:11;98334.31;;;14.49;87.16
31771;BME280;18343;50.152;8.182;2022-07-10T06:17:39;98326.19;;;14.49;86.11
31771;BME280;18343;50.152;8.182;2022-07-10T06:20:07;98325.34;;;14.49;83.67
31771;BME280;18343;50.152;8.182;2022-07-10T06:22:35;98329.09;;;14.48;83.46
31771;BME280;18343;50.152;8.182;2022-07-10T06:25:06;98332.22;;;14.51;84.84
31771;BME280;18343;50.152;8.182;2022-07-10T06:27:34;98340.78;;;14.55;84.05
31771;BME280;18343;50.152;8.182;2022-07-10T06:30:02;98329.69;;;14.50;84.25
31771;BME280;18343;50.152;8.182;2022-07-10T06:32:29;98335.56;;;14.53;82.77
31771;BME280;18343;50.152;8.182;2022-07-10T06:34:57;98327.69;;;14.59;86.44
31771;BME280;18343;50.152;8.182;2022-07-10T06:37:25;98335.03;;;14.65;86.58
31771;BME280;18343;50.152;8.182;2022-07-10T06:39:52;98336.72;;;14.66;83.83
31771;BME280;18343;50.152;8.182;2022-07-10T06:42:21;98329.63;;;14.65;84.57
31771;BME280;18343;50.152;8.182;2022-07-10T06:44:48;98335.88;;;14.65;81.81
31771;BME280;18343;50.152;8.182;2022-07-10T06:47:17;98332.66;;;14.55;80.43
31771;BME280;18343;50.152;8.182;2022-07-10T06:50:03;98327.25;;;14.55;80.61
31771;BME280;18343;50.152;8.182;2022-07-10T06:52:31;98325.38;;;14.55;81.22
31771;BME280;18343;50.152;8.182;2022-07-10T06:55:00;98335.69;;;14.67;83.82
31771;BME280;18343;50.152;8.182;2022-07-10T06:57:29;98330.72;;;14.70;82.12
31771;BME280;18343;50.152;8.182;2022-07-10T06:59:57;98324.53;;;14.83;84.28
31771;BME280;18343;50.152;8.182;2022-07-10T07:02:24;98328.28;;;14.82;82.69
31771;BME280;18343;50.152;8.182;2022-07-10T07:04:52;98328.78;;;14.92;84.17
31771;BME280;18343;50.152;8.182;2022-07-10T07:07:19;98316.50;;;14.96;84.50
31771;BME280;18343;50.152;8.182;2022-07-10T07:09:46;98324.00;;;14.94;84.14
31771;BME280;18343;50.152;8.182;2022-07-10T07:12:15;98324.94;;;14.80;82.75
31771;BME280;18343;50.152;8.182;2022-07-10T07:14:44;98330.41;;;14.86;84.71
31771;BME280;18343;50.152;8.182;2022-07-10T07:17:13;98338.53;;;14.86;82.33
31771;BME280;18343;50.152;8.182;2022-07-10T07:19:47;98341.03;;;14.88;83.72
31771;BME280;18343;50.152;8.182;2022-07-10T07:22:32;98335.06;;;14.99;84.00
31771;BME280;18343;50.152;8.182;2022-07-10T07:25:16;98326.69;;;14.94;82.80
31771;BME280;18343;50.152;8.182;2022-07-10T07:27:44;98321.28;;;14.94;81.55
31771;BME280;18343;50.152;8.182;2022-07-10T07:30:15;98330.25;;;14.95;81.80
31771;BME280;18343;50.152;8.182;2022-07-10T07:32:43;98329.66;;;14.99;82.58
31771;BME280;18343;50.152;8.182;2022-07-10T07:35:12;98340.56;;;15.12;82.24
31771;BME280;18343;50.152;8.182;2022-07-10T07:37:41;98348.09;;;15.17;81.71
31771;BME280;18343;50.152;8.182;2022-07-10T07:40:12;98336.19;;;15.11;81.35
31771;BME280;18343;50.152;8.182;2022-07-10T07:42:40;98347.22;;;15.10;81.51
31771;BME280;18343;50.152;8.182;2022-07-10T07:45:09;98355.72;;;15.00;80.84
31771;BME280;18343;50.152;8.182;2022-07-10T07:47:49;98356.06;;;15.25;81.64
31771;BME280;18343;50.152;8.182;2022-07-10T07:50:19;98345.66;;;15.29;80.51
31771;BME280;18343;50.152;8.182;2022-07-10T07:52:48;98352.75;;;15.30;80.99
31771;BME280;18343;50.152;8.182;2022-07-10T07:55:17;98356.22;;;15.17;79.82
31771;BME280;18343;50.152;8.182;2022-07-10T07:57:46;98355.19;;;15.18;79.36
31771;BME280;18343;50.152;8.182;2022-07-10T08:00:14;98348.63;;;15.06;79.19
31771;BME280;18343;50.152;8.182;2022-07-10T08:02:43;98348.19;;;14.96;77.85
31771;BME280;18343;50.152;8.182;2022-07-10T08:05:12;98353.34;;;14.90;77.80
31771;BME280;18343;50.152;8.182;2022-07-10T08:07:42;98349.22;;;14.95;78.25
31771;BME280;18343;50.152;8.182;2022-07-10T08:10:12;98339.69;;;15.05;78.13
31771;BME280;18343;50.152;8.182;2022-07-10T08:12:41;98342.13;;;15.28;80.35
31771;BME280;18343;50.152;8.182;2022-07-10T08:15:10;98336.31;;;15.31;79.15
31771;BME280;18343;50.152;8.182;2022-07-10T08:17:38;98341.03;;;15.64;79.43
31771;BME280;18343;50.152;8.182;2022-07-10T08:20:13;98336.28;;;15.72;78.06
31771;BME280;18343;50.152;8.182;2022-07-10T08:22:41;98339.47;;;15.41;77.08
31771;BME280;18343;50.152;8.182;2022-07-10T08:25:10;98340.25;;;15.35;77.31
31771;BME280;18343;50.152;8.182;2022-07-10T08:27:38;98341.19;;;15.49;78.92
31771;BME280;18343;50.152;8.182;2022-07-10T08:30:07;98343.34;;;15.67;77.62
31771;BME280;18343;50.152;8.182;2022-07-10T08:32:39;98342.94;;;15.70;77.70
31771;BME280;18343;50.152;8.182;2022-07-10T08:35:09;98344.06;;;15.82;78.29
31771;BME280;18343;50.152;8.182;2022-07-10T08:37:42;98344.22;;;15.74;77.17
31771;BME280;18343;50.152;8.182;2022-07-10T08:40:11;98330.84;;;15.59;78.49
31771;BME280;18343;50.152;8.182;2022-07-10T08:42:40;98335.56;;;15.50;77.90
31771;BME280;18343;50.152;8.182;2022-07-10T08:45:10;98326.97;;;15.95;77.66
31771;BME280;18343;50.152;8.182;2022-07-10T08:47:38;98325.25;;;15.87;76.03
31771;BME280;18343;50.152;8.182;2022-07-10T08:50:17;98319.00;;;15.86;78.47
31771;BME280;18343;50.152;8.182;2022-07-10T08:53:00;98328.63;;;15.96;77.39
31771;BME280;18343;50.152;8.182;2022-07-10T08:55:28;98325.75;;;16.23;75.86
31771;BME280;18343;50.152;8.182;2022-07-10T08:57:55;98329.69;;;16.01;76.44
31771;BME280;18343;50.152;8.182;2022-07-10T09:00:23;98329.88;;;15.93;76.53
31771;BME280;18343;50.152;8.182;2022-07-10T09:02:50;98326.53;;;15.91;76.12
31771;BME280;18343;50.152;8.182;2022-07-10T09:05:19;98319.47;;;15.97;76.52
31771;BME280;18343;50.152;8.182;2022-07-10T09:07:48;98319.28;;;16.24;73.40
31771;BME280;18343;50.152;8.182;2022-07-10T09:10:16;98323.50;;;16.34;72.73
31771;BME280;18343;50.152;8.182;2022-07-10T09:12:52;98318.47;;;16.37;71.40
31771;BME280;18343;50.152;8.182;2022-07-10T09:15:22;98320.97;;;16.32;73.18
31771;BME280;18343;50.152;8.182;2022-07-10T09:17:54;98317.41;;;16.18;73.37
31771;BME280;18343;50.152;8.182;2022-07-10T09:20:30;98321.75;;;16.00;73.18
31771;BME280;18343;50.152;8.182;2022-07-10T09:23:09;98317.97;;;15.94;73.71
31771;BME280;18343;50.152;8.182;2022-07-10T09:25:41;98312.59;;;16.07;72.98
31771;BME280;18343;50.152;8.182;2022-07-10T09:28:08;98322.63;;;16.13;75.26
31771;BME280;18343;50.152;8.182;2022-07-10T09:30:37;98318.44;;;16.11;73.35
31771;BME280;18343;50.152;8.182;2022-07-10T09:33:22;98318.81;;;15.95;72.96
31771;BME280;18343;50.152;8.182;2022-07-10T09:36:02;98325.75;;;16.23;73.60
31771;BME280;18343;50.152;8.182;2022-07-10T09:38:53;98317.22;;;16.79;69.76
31771;BME280;18343;50.152;8.182;2022-07-10T09:41:29;98310.97;;;16.79;68.28
31771;BME280;18343;50.152;8.182;2022-07-10T09:43:58;98308.06;;;16.67;71.26
31771;BME280;18343;50.152;8.182;2022-07-10T09:46:30;98301.75;;;16.86;70.00
31771;BME280;18343;50.152;8.182;2022-07-10T09:49:09;98303.84;;;16.84;70.92
31771;BME280;18343;50.152;8.182;2022-07-10T09:51:38;98308.25;;;16.85;70.12
31771;BME280;18343;50.152;8.182;2022-07-10T09:54:08;98313.88;;;16.71;70.42
31771;BME280;18343;50.152;8.182;2022-07-10T09:56:41;98310.31;;;16.50;70.25
31771;BME280;18343;50.152;8.182;2022-07-10T09:59:11;98309.72;;;16.35;70.47
31771;BME280;18343;50.152;8.182;2022-07-10T10:01:44;98304.88;;;16.24;69.74
31771;BME280;18343;50.152;8.182;2022-07-10T10:04:15;98305.75;;;16.38;70.01
31771;BME280;18343;50.152;8.182;2022-07-10T10:06:46;98301.34;;;16.70;70.40
31771;BME280;18343;50.152;8.182;2022-07-10T10:09:23;98306.16;;;16.54;69.66
31771;BME280;18343;50.152;8.182;2022-07-10T10:11:57;98305.53;;;16.39;70.01
31771;BME280;18343;50.152;8.182;2022-07-10T10:14:28;98310.13;;;16.32;70.00
31771;BME280;18343;50.152;8.182;2022-07-10T10:16:56;98307.22;;;16.40;69.82
31771;BME280;18343;50.152;8.182;2022-07-10T10:19:24;98310.34;;;16.37;70.11
31771;BME280;18343;50.152;8.182;2022-07-10T10:22:12;98312.00;;;16.32;69.18
31771;BME280;18343;50.152;8.182;2022-07-10T10:24:43;98300.72;;;16.28;69.49
31771;BME280;18343;50.152;8.182;2022-07-10T10:27:12;98300.50;;;16.30;69.68
31771;BME280;18343;50.152;8.182;2022-07-10T10:29:41;98303.03;;;16.38;69.94
31771;BME280;18343;50.152;8.182;2022-07-10T10:32:10;98294.88;;;16.57;69.29
31771;BME280;18343;50.152;8.182;2022-07-10T10:34:41;98296.75;;;16.44;68.23
31771;BME280;18343;50.152;8.182;2022-07-10T10:37:32;98295.06;;;16.43;67.63
31771;BME280;18343;50.152;8.182;2022-07-10T10:40:04;98286.94;;;16.36;66.56
31771;BME280;18343;50.152;8.182;2022-07-10T10:42:36;98286.09;;;16.62;69.77
31771;BME280;18343;50.152;8.182;2022-07-10T10:45:25;98273.78;;;16.73;66.53
31771;BME280;18343;50.152;8.182;2022-07-10T10:48:01;98273.34;;;16.63;65.51
31771;BME280;18343;50.152;8.182;2022-07-10T10:50:37;98270.22;;;16.79;67.22
31771;BME280;18343;50.152;8.182;2022-07-10T10:53:13;98254.47;;;17.01;66.53
31771;BME280;18343;50.152;8.182;2022-07-10T10:56:22;98262.81;;;17.19;65.84
31771;BME280;18343;50.152;8.182;2022-07-10T10:58:53;98254.69;;;17.06;64.48
31771;BME280;18343;50.152;8.182;2022-07-10T11:01:29;98266.69;;;17.43;64.49
31771;BME280;18343;50.152;8.182;2022-07-10T11:04:15;98262.28;;;17.42;65.39
31771;BME280;18343;50.152;8.182;2022-07-10T11:06:46;98267.91;;;17.47;65.00
31771;BME280;18343;50.152;8.182;2022-07-10T11:09:28;98260.97;;;17.51;64.68
31771;BME280;18343;50.152;8.182;2022-07-10T11:12:02;98259.00;;;17.26;62.47
31771;BME280;18343;50.152;8.182;2022-07-10T11:14:32;98265.88;;;17.36;63.51
31771;BME280;18343;50.152;8.182;2022-07-10T11:17:00;98269.03;;;17.77;64.08
31771;BME280;18343;50.152;8.182;2022-07-10T11:19:29;98270.44;;;17.86;63.75
31771;BME280;18343;50.152;8.182;2022-07-10T11:22:46;98269.72;;;17.66;63.68
31771;BME280;18343;50.152;8.182;2022-07-10T11:25:36;98256.56;;;17.56;63.12
31771;BME280;18343;50.152;8.182;2022-07-10T11:28:11;98267.72;;;17.42;61.70
31771;BME280;18343;50.152;8.182;2022-07-10T11:30:47;98264.44;;;17.26;61.29
31771;BME280;18343;50.152;8.182;2022-07-10T11:33:17;98258.16;;;17.26;61.83
31771;BME280;18343;50.152;8.182;2022-07-10T11:35:47;98264.09;;;17.54;65.06
31771;BME280;18343;50.152;8.182;2022-07-10T11:38:23;98261.75;;;18.03;63.28
31771;BME280;18343;50.152;8.182;2022-07-10T11:40:52;98278.97;;;18.28;63.68
31771;BME280;18343;50.152;8.182;2022-07-10T11:43:23;98269.81;;;18.16;61.44
31771;BME280;18343;50.152;8.182;2022-07-10T11:45:51;98257.00;;;17.91;61.51
31771;BME280;18343;50.152;8.182;2022-07-10T11:48:21;98253.97;;;18.06;62.83
31771;BME280;18343;50.152;8.182;2022-07-10T11:50:49;98259.09;;;17.96;60.44
31771;BME280;18343;50.152;8.182;2022-07-10T11:53:23;98258.16;;;17.77;60.67
31771;BME280;18343;50.152;8.182;2022-07-10T11:55:50;98272.63;;;17.71;60.96
31771;BME280;18343;50.152;8.182;2022-07-10T11:58:20;98257.00;;;18.23;61.69
31771;BME280;18343;50.152;8.182;2022-07-10T12:00:59;98260.97;;;17.96;60.88
31771;BME280;18343;50.152;8.182;2022-07-10T12:03:27;98252.25;;;17.80;61.90
31771;BME280;18343;50.152;8.182;2022-07-10T12:05:55;98249.81;;;17.72;61.27
31771;BME280;18343;50.152;8.182;2022-07-10T12:08:23;98246.09;;;17.67;62.10
31771;BME280;18343;50.152;8.182;2022-07-10T12:10:51;98249.38;;;17.75;64.21
31771;BME280;18343;50.152;8.182;2022-07-10T12:13:18;98253.75;;;18.08;63.68
31771;BME280;18343;50.152;8.182;2022-07-10T12:15:47;98258.22;;;18.27;62.03
31771;BME280;18343;50.152;8.182;2022-07-10T12:18:19;98255.72;;;18.01;61.34
31771;BME280;18343;50.152;8.182;2022-07-10T12:20:49;98257.25;;;18.15;63.49
31771;BME280;18343;50.152;8.182;2022-07-10T12:23:19;98264.28;;;18.29;62.86
31771;BME280;18343;50.152;8.182;2022-07-10T12:25:47;98261.91;;;18.64;62.02
31771;BME280;18343;50.152;8.182;2022-07-10T12:28:15;98272.25;;;18.80;60.74
31771;BME280;18343;50.152;8.182;2022-07-10T12:30:47;98265.34;;;18.28;60.08
31771;BME280;18343;50.152;8.182;2022-07-10T12:33:16;98268.75;;;18.17;61.52
31771;BME280;18343;50.152;8.182;2022-07-10T12:35:50;98265.47;;;18.08;61.53
31771;BME280;18343;50.152;8.182;2022-07-10T12:38:20;98278.66;;;18.11;62.64
31771;BME280;18343;50.152;8.182;2022-07-10T12:40:48;98263.72;;;17.89;62.00
31771;BME280;18343;50.152;8.182;2022-07-10T12:43:26;98260.78;;;17.90;62.82
31771;BME280;18343;50.152;8.182;2022-07-10T12:46:14;98262.13;;;18.06;62.60
31771;BME280;18343;50.152;8.182;2022-07-10T12:48:43;98247.94;;;18.04;63.18
31771;BME280;18343;50.152;8.182;2022-07-10T12:51:22;98254.88;;;18.00;62.84
31771;BME280;18343;50.152;8.182;2022-07-10T12:53:50;98251.75;;;17.97;62.98
31771;BME280;18343;50.152;8.182;2022-07-10T12:56:34;98258.91;;;17.91;61.92
31771;BME280;18343;50.152;8.182;2022-07-10T12:59:03;98260.56;;;17.92;62.45
31771;BME280;18343;50.152;8.182;2022-07-10T13:01:41;98260.19;;;17.82;62.63
31771;BME280;18343;50.152;8.182;2022-07-10T13:04:09;98257.00;;;17.91;62.61
31771;BME280;18343;50.152;8.182;2022-07-10T13:06:39;98263.00;;;18.32;63.72
31771;BME280;18343;50.152;8.182;2022-07-10T13:09:21;98260.63;;;18.67;61.42
31771;BME280;18343;50.152;8.182;2022-07-10T13:11:50;98260.59;;;18.42;62.89
31771;BME280;18343;50.152;8.182;2022-07-10T13:14:17;98265.16;;;18.23;63.01
31771;BME280;18343;50.152;8.182;2022-07-10T13:16:46;98264.41;;;18.09;63.38